Time;durP1;ratioP1;P1;durP2;ratioP2;P2;SDS_P1;SDS_P2;PMS_P1;PMS_P2;Temp;Humidity;BMP_temperature;BMP_pressure;BME280_temperature;BME280_humidity;BME280_pressure;Samples;Min_cycle;Max_cycle;Signal;HPM_P1;HPM_P2
2022/04/25 00:01:12;;;;;;;2.35;0.68;;;7.80;99.90;;;;;;4938466;29;20028;-74
2022/04/25 00:03:38;;;;;;;1.75;0.55;;;7.70;99.90;;;;;;4938039;29;20070;-74
2022/04/25 00:06:04;;;;;;;1.77;0.77;;;7.70;99.90;;;;;;4937652;29;20052;-74
2022/04/25 00:08:30;;;;;;;1.15;0.50;;;7.60;99.90;;;;;;4937942;29;20055;-74
2022/04/25 00:10:55;;;;;;;3.67;0.30;;;7.60;99.90;;;;;;4937909;29;20106;-74
2022/04/25 00:13:21;;;;;;;2.83;0.63;;;7.60;99.90;;;;;;4937552;29;20115;-74
2022/04/25 00:15:47;;;;;;;3.00;0.73;;;7.50;99.90;;;;;;4937446;29;20038;-74
2022/04/25 00:18:13;;;;;;;1.55;1.05;;;7.40;99.90;;;;;;4919959;29;20032;-74
2022/04/25 00:20:38;;;;;;;2.88;0.80;;;7.50;99.90;;;;;;4937340;29;20035;-74
2022/04/25 00:23:05;;;;;;;1.63;0.85;;;7.40;99.90;;;;;;4937100;29;20039;-74
2022/04/25 00:25:34;;;;;;;2.10;1.15;;;7.50;99.90;;;;;;4937150;29;20028;-74
2022/04/25 00:28:01;;;;;;;3.45;1.27;;;7.40;99.90;;;;;;4937241;29;20024;-74
2022/04/25 00:30:28;;;;;;;1.83;0.90;;;7.40;99.90;;;;;;4937119;29;20087;-74
2022/04/25 00:32:54;;;;;;;4.47;1.30;;;7.40;99.90;;;;;;4936790;29;20047;-74
2022/04/25 00:35:20;;;;;;;3.03;1.63;;;7.40;99.90;;;;;;4936907;29;20056;-74
2022/04/25 00:37:46;;;;;;;4.93;1.38;;;7.40;99.90;;;;;;4936820;29;20427;-74
2022/04/25 00:40:11;;;;;;;1.33;0.85;;;7.40;99.90;;;;;;4936777;29;20024;-74
2022/04/25 00:42:38;;;;;;;0.98;0.45;;;7.20;99.90;;;;;;4936794;29;20086;-74
2022/04/25 00:45:04;;;;;;;2.70;1.20;;;7.20;99.90;;;;;;4936619;29;20043;-74
2022/04/25 00:47:30;;;;;;;1.63;1.00;;;7.20;99.90;;;;;;4936022;29;20518;-74
2022/04/25 00:49:55;;;;;;;1.77;1.20;;;7.20;99.90;;;;;;4936716;29;20047;-74
2022/04/25 00:52:21;;;;;;;0.50;0.30;;;7.10;99.90;;;;;;4936698;29;20472;-74
2022/04/25 00:54:47;;;;;;;0.50;0.50;;;7.10;99.90;;;;;;4936283;29;20055;-74
2022/04/25 00:57:12;;;;;;;2.20;0.70;;;7.00;99.90;;;;;;4936271;29;20024;-74
2022/04/25 00:59:39;;;;;;;1.38;0.50;;;6.90;99.90;;;;;;4936442;29;20030;-74
2022/04/25 01:02:06;;;;;;;2.17;0.43;;;6.90;99.90;;;;;;4919274;29;20038;-74
2022/04/25 01:04:32;;;;;;;0.30;0.30;;;6.80;99.90;;;;;;4936146;29;20035;-74
2022/04/25 01:06:58;;;;;;;2.45;0.50;;;6.80;99.90;;;;;;4919000;29;20043;-74
2022/04/25 01:09:25;;;;;;;1.40;0.57;;;6.80;99.90;;;;;;4936061;29;20040;-74
2022/04/25 01:11:55;;;;;;;0.65;0.30;;;6.80;99.90;;;;;;4919055;29;20031;-74
2022/04/25 01:14:21;;;;;;;2.05;0.70;;;6.70;99.90;;;;;;4935902;29;20086;-74
2022/04/25 01:16:47;;;;;;;1.10;0.70;;;6.70;99.90;;;;;;4936118;29;20028;-74
2022/04/25 01:19:14;;;;;;;2.60;0.90;;;6.60;99.90;;;;;;4936291;29;20032;-74
2022/04/25 01:21:44;;;;;;;1.75;1.02;;;6.60;99.90;;;;;;4936068;29;20046;-74
2022/04/25 01:27:17;;;;;;;1.25;0.85;;;6.60;99.90;;;;;;4920207;29;20040;-74
2022/04/25 01:29:53;;;;;;;4.30;0.80;;;6.60;99.90;;;;;;4935468;29;20087;-74
2022/04/25 01:32:19;;;;;;;;;;;6.60;99.90;;;;;;4919007;29;20028;-74
2022/04/25 01:34:45;;;;;;;1.80;0.80;;;6.60;99.90;;;;;;4918541;29;20278;-74
2022/04/25 01:37:12;;;;;;;0.73;0.60;;;6.50;99.90;;;;;;4918566;29;20040;-74
2022/04/25 01:39:57;;;;;;;0.98;0.82;;;6.50;99.90;;;;;;4918603;29;20020;-74
2022/04/25 01:42:23;;;;;;;1.35;0.80;;;6.50;99.90;;;;;;4918832;29;20027;-74
2022/04/25 01:44:50;;;;;;;3.25;0.82;;;6.60;99.90;;;;;;4935756;29;20063;-74
2022/04/25 01:47:15;;;;;;;3.03;0.85;;;6.50;99.90;;;;;;4935396;29;20031;-74
2022/04/25 01:49:41;;;;;;;2.30;0.70;;;6.50;99.90;;;;;;4935358;29;20349;-74
2022/04/25 01:52:11;;;;;;;0.85;0.60;;;6.40;99.90;;;;;;4918473;29;20034;-74
2022/04/25 01:54:36;;;;;;;3.58;1.05;;;6.40;99.90;;;;;;4935505;29;20032;-74
2022/04/25 01:57:02;;;;;;;1.27;0.70;;;6.40;99.90;;;;;;4918232;29;20036;-74
2022/04/25 01:59:30;;;;;;;1.17;0.50;;;6.40;99.90;;;;;;4918204;29;20539;-74
2022/04/25 02:01:56;;;;;;;0.20;0.20;;;6.40;99.90;;;;;;4935020;29;20119;-74
2022/04/25 02:04:22;;;;;;;0.30;0.30;;;6.30;99.90;;;;;;4918142;29;20487;-73
2022/04/25 02:06:48;;;;;;;1.70;0.50;;;6.20;99.90;;;;;;4935090;29;20118;-73
2022/04/25 02:09:14;;;;;;;0.57;0.40;;;6.10;99.90;;;;;;4935166;29;20155;-74
2022/04/25 02:11:40;;;;;;;3.42;1.05;;;6.10;99.90;;;;;;4934970;29;20102;-73
2022/04/25 02:14:06;;;;;;;2.42;0.75;;;6.10;99.90;;;;;;4935163;29;20438;-73
2022/04/25 02:16:32;;;;;;;1.10;0.63;;;6.10;99.90;;;;;;4935086;29;20098;-74
2022/04/25 02:18:58;;;;;;;2.45;1.05;;;6.10;99.90;;;;;;4935164;29;20020;-73
2022/04/25 02:21:24;;;;;;;2.92;0.68;;;6.10;99.90;;;;;;4935200;29;20492;-73
2022/04/25 02:23:50;;;;;;;0.82;0.60;;;6.00;99.90;;;;;;4934900;29;20031;-74
2022/04/25 02:26:16;;;;;;;1.95;0.60;;;6.10;99.90;;;;;;4934844;29;20055;-74
2022/04/25 02:28:42;;;;;;;3.28;1.17;;;6.10;99.90;;;;;;4935099;29;20031;-73
2022/04/25 02:31:08;;;;;;;3.38;1.02;;;6.10;99.90;;;;;;4917858;29;20379;-74
2022/04/25 02:33:35;;;;;;;0.98;0.70;;;6.00;99.90;;;;;;4934932;29;20523;-74
2022/04/25 02:36:04;;;;;;;1.38;0.80;;;6.00;99.90;;;;;;4934806;29;20150;-74
2022/04/25 02:38:31;;;;;;;2.25;1.00;;;6.00;99.90;;;;;;4934718;29;20042;-74
2022/04/25 02:41:06;;;;;;;3.22;0.88;;;6.00;99.90;;;;;;4934622;29;20416;-74
2022/04/25 02:43:40;;;;;;;1.52;0.82;;;5.90;99.90;;;;;;4934703;29;20043;-74
2022/04/25 02:46:08;;;;;;;3.22;1.35;;;5.90;99.90;;;;;;4934560;29;20042;-74
2022/04/25 02:48:35;;;;;;;1.40;1.15;;;5.90;99.90;;;;;;4934967;29;20024;-74
2022/04/25 02:51:02;;;;;;;4.88;1.48;;;5.90;99.90;;;;;;4934693;29;20111;-74
2022/04/25 02:53:28;;;;;;;1.50;1.13;;;5.90;99.90;;;;;;4934648;29;20027;-73
2022/04/25 02:55:54;;;;;;;4.60;1.40;;;5.90;99.90;;;;;;4934498;29;20375;-73
2022/04/25 02:58:20;;;;;;;1.60;0.80;;;5.90;99.90;;;;;;4917552;29;20475;-74
2022/04/25 03:00:47;;;;;;;5.35;1.50;;;5.90;99.90;;;;;;4934540;29;20598;-74
2022/04/25 03:03:18;;;;;;;4.72;1.65;;;6.00;99.90;;;;;;4917498;29;20074;-74
2022/04/25 03:05:46;;;;;;;0.75;0.70;;;6.00;99.90;;;;;;4934311;29;20108;-74
2022/04/25 03:08:13;;;;;;;1.17;0.55;;;6.00;99.90;;;;;;4916385;29;20389;-74
2022/04/25 03:10:39;;;;;;;1.02;0.60;;;6.00;99.90;;;;;;4934394;29;20164;-73
2022/04/25 03:13:07;;;;;;;2.90;1.88;;;5.90;99.90;;;;;;4934439;29;20111;-74
2022/04/25 03:15:34;;;;;;;1.05;0.90;;;5.90;99.90;;;;;;4917058;29;20070;-74
2022/04/25 03:18:01;;;;;;;2.33;0.82;;;5.90;99.90;;;;;;4934291;29;20020;-74
2022/04/25 03:20:28;;;;;;;2.90;0.88;;;6.00;99.90;;;;;;4934567;29;20159;-73
2022/04/25 03:22:58;;;;;;;4.28;1.10;;;6.00;99.90;;;;;;4916708;29;20424;-74
2022/04/25 03:25:23;;;;;;;1.60;1.10;;;5.90;99.90;;;;;;4934257;29;20039;-74
2022/04/25 03:27:49;;;;;;;3.70;1.50;;;5.90;99.90;;;;;;4934385;29;20051;-73
2022/04/25 03:30:14;;;;;;;2.78;1.08;;;5.80;99.90;;;;;;4934318;29;20106;-74
2022/04/25 03:32:47;;;;;;;1.67;0.80;;;5.80;99.90;;;;;;4934460;29;20032;-73
2022/04/25 03:35:14;;;;;;;1.65;0.93;;;5.80;99.90;;;;;;4917380;29;20091;-74
2022/04/25 03:37:41;;;;;;;1.15;0.90;;;5.70;99.90;;;;;;4934032;29;20152;-74
2022/04/25 03:40:09;;;;;;;4.47;0.90;;;5.70;99.90;;;;;;4934124;29;20023;-74
2022/04/25 03:42:36;;;;;;;2.70;1.23;;;5.80;99.90;;;;;;4934196;29;20024;-74
2022/04/25 03:45:05;;;;;;;2.75;1.10;;;5.80;99.90;;;;;;4934258;29;20034;-74
2022/04/25 03:47:34;;;;;;;3.35;1.17;;;5.90;99.90;;;;;;4933963;29;20122;-74
2022/04/25 03:49:59;;;;;;;5.30;2.83;;;5.90;99.90;;;;;;4916701;29;20467;-74
2022/04/25 03:52:25;;;;;;;5.80;3.17;;;6.00;99.90;;;;;;4934086;29;20027;-74
2022/04/25 03:57:37;;;;;;;1.63;1.13;;;6.10;99.90;;;;;;4926663;29;20101;-73
2022/04/25 04:00:05;;;;;;;4.15;1.83;;;6.10;99.90;;;;;;4920415;29;20036;-74
2022/04/25 04:02:30;;;;;;;6.88;1.30;;;6.10;99.90;;;;;;4920413;29;20024;-74
2022/04/25 04:04:56;;;;;;;3.45;1.08;;;6.30;99.90;;;;;;4937275;29;20046;-74
2022/04/25 04:07:22;;;;;;;1.42;1.02;;;6.40;99.90;;;;;;4937190;29;20055;-74
2022/04/25 04:09:47;;;;;;;1.70;0.80;;;6.40;99.90;;;;;;4937333;29;20036;-74
2022/04/25 04:12:17;;;;;;;1.80;0.80;;;6.40;99.90;;;;;;4937308;29;20028;-74
2022/04/25 04:14:44;;;;;;;1.13;0.90;;;6.50;99.90;;;;;;4937210;29;20028;-74
2022/04/25 04:17:10;;;;;;;2.97;1.50;;;6.40;99.90;;;;;;4937091;29;20031;-74
2022/04/25 04:19:36;;;;;;;4.75;1.33;;;6.40;99.90;;;;;;4937092;29;20067;-73
2022/04/25 04:22:03;;;;;;;4.93;1.50;;;6.40;99.90;;;;;;4936984;29;20031;-74
2022/04/25 04:24:34;;;;;;;5.45;1.90;;;6.40;99.90;;;;;;4904092;29;20036;-74
2022/04/25 04:27:04;;;;;;;5.75;1.63;;;6.40;99.90;;;;;;4936486;29;20115;-74
2022/04/25 04:29:31;;;;;;;4.53;1.23;;;6.50;99.90;;;;;;4938675;29;20031;-76
2022/04/25 04:31:58;;;;;;;5.80;0.88;;;6.50;99.90;;;;;;4937983;29;20020;-74
2022/04/25 04:34:24;;;;;;;2.72;1.48;;;6.60;99.90;;;;;;4939881;29;20024;-73
2022/04/25 04:36:51;;;;;;;2.92;1.08;;;6.60;99.90;;;;;;4939468;29;20481;-74
2022/04/25 04:39:17;;;;;;;6.70;1.35;;;6.70;99.90;;;;;;4936695;29;20051;-74
2022/04/25 04:41:42;;;;;;;1.35;1.00;;;6.90;99.90;;;;;;4936620;29;20039;-74
2022/04/25 04:44:08;;;;;;;3.38;1.42;;;7.00;99.90;;;;;;4937916;29;20036;-73
2022/04/25 04:46:34;;;;;;;5.20;1.67;;;7.10;99.90;;;;;;4940534;29;20031;-73
2022/04/25 04:48:59;;;;;;;1.77;1.35;;;7.40;99.90;;;;;;4920591;29;20028;-74
2022/04/25 04:51:25;;;;;;;29.17;12.05;;;7.50;99.90;;;;;;4937939;29;20031;-74
2022/04/25 04:53:50;;;;;;;6.68;3.22;;;7.60;99.90;;;;;;4937095;29;20087;-74
2022/04/25 04:56:16;;;;;;;1.80;1.38;;;7.60;99.90;;;;;;4937515;29;20027;-74
2022/04/25 04:58:42;;;;;;;2.30;1.10;;;7.80;99.90;;;;;;4919720;29;20071;-74
2022/04/25 05:01:07;;;;;;;4.78;1.02;;;7.90;99.90;;;;;;4936968;29;20031;-75
2022/04/25 05:03:34;;;;;;;2.50;1.10;;;8.00;99.90;;;;;;4919523;29;20078;-74
2022/04/25 05:06:00;;;;;;;2.70;1.25;;;8.10;99.90;;;;;;4935692;29;20031;-74
2022/04/25 05:08:25;;;;;;;2.90;1.00;;;8.10;99.90;;;;;;4937278;29;20052;-74
2022/04/25 05:10:53;;;;;;;3.47;1.77;;;8.20;99.90;;;;;;4936870;29;20042;-74
2022/04/25 05:13:20;;;;;;;1.55;0.93;;;8.20;99.90;;;;;;4936152;29;20062;-74
2022/04/25 05:15:46;;;;;;;2.83;1.02;;;8.30;99.90;;;;;;4935917;29;20518;-74
2022/04/25 05:18:12;;;;;;;4.50;1.10;;;8.40;99.90;;;;;;4936055;29;20344;-74
2022/04/25 05:20:38;;;;;;;4.78;0.80;;;8.50;99.90;;;;;;4936118;29;20608;-74
2022/04/25 05:23:04;;;;;;;2.05;1.30;;;8.60;99.90;;;;;;4918924;29;20377;-73
2022/04/25 05:25:30;;;;;;;4.10;1.65;;;8.80;99.90;;;;;;4918701;29;20538;-75
2022/04/25 05:27:56;;;;;;;3.42;1.25;;;8.80;99.90;;;;;;4935832;29;20103;-74
2022/04/25 05:30:25;;;;;;;1.38;0.85;;;8.90;99.90;;;;;;4936230;29;20027;-74
2022/04/25 05:32:55;;;;;;;1.20;0.80;;;9.00;99.90;;;;;;4935695;29;20027;-74
2022/04/25 05:35:26;;;;;;;2.00;0.70;;;9.00;99.90;;;;;;4919515;29;20055;-74
2022/04/25 05:37:52;;;;;;;1.73;0.88;;;9.10;99.90;;;;;;4935918;29;20035;-74
2022/04/25 05:40:19;;;;;;;1.05;0.90;;;9.20;99.90;;;;;;4919022;29;20036;-74
2022/04/25 05:42:45;;;;;;;3.05;1.90;;;9.40;99.90;;;;;;4936754;29;20062;-75
2022/04/25 05:45:13;;;;;;;2.35;1.08;;;9.60;99.90;;;;;;4936144;29;20035;-75
2022/04/25 05:47:39;;;;;;;1.55;1.10;;;9.70;99.90;;;;;;4935804;29;20850;-74
2022/04/25 05:52:51;;;;;;;;;;;10.10;99.90;;;;;;4936581;29;20419;-75
2022/04/25 05:55:17;;;;;;;2.03;1.10;;;10.20;99.90;;;;;;4936650;29;19911;-75
2022/04/25 05:57:43;;;;;;;0.88;0.77;;;10.40;99.90;;;;;;4935717;29;20028;-74
2022/04/25 06:00:10;;;;;;;3.67;0.98;;;10.50;99.90;;;;;;4917937;29;20027;-74
2022/04/25 06:02:40;;;;;;;2.92;1.50;;;10.60;99.90;;;;;;4918201;29;20027;-75
2022/04/25 06:05:10;;;;;;;3.65;1.00;;;10.70;99.90;;;;;;4935506;29;20119;-74
2022/04/25 06:07:36;;;;;;;2.83;1.50;;;10.90;99.90;;;;;;4934928;29;20051;-74
2022/04/25 06:10:03;;;;;;;1.85;1.17;;;11.00;99.70;;;;;;4935039;29;20031;-74
2022/04/25 06:12:29;;;;;;;3.90;1.27;;;11.10;99.30;;;;;;4917891;29;20042;-75
2022/04/25 06:15:02;;;;;;;3.95;1.50;;;11.20;99.50;;;;;;4918187;29;20068;-74
2022/04/25 06:17:28;;;;;;;2.20;1.40;;;11.30;98.60;;;;;;4917827;29;20024;-75
2022/04/25 06:19:53;;;;;;;2.05;1.52;;;11.50;99.90;;;;;;4934573;29;20399;-74
2022/04/25 06:22:20;;;;;;;4.00;1.70;;;11.70;99.90;;;;;;4934728;29;20024;-74
2022/04/25 06:24:46;;;;;;;2.78;1.50;;;12.00;99.90;;;;;;4918000;29;20035;-75
2022/04/25 06:27:13;;;;;;;2.03;1.33;;;12.10;96.80;;;;;;4934952;29;20020;-74
2022/04/25 06:29:44;;;;;;;6.07;1.25;;;12.20;96.00;;;;;;4934937;29;20114;-75
2022/04/25 06:32:10;;;;;;;2.28;1.02;;;12.20;95.80;;;;;;4935095;29;20039;-75
2022/04/25 06:34:36;;;;;;;2.50;1.45;;;12.30;95.60;;;;;;4934810;29;20753;-74
2022/04/25 06:37:02;;;;;;;5.28;1.48;;;12.50;95.10;;;;;;4934852;29;20035;-75
2022/04/25 06:39:28;;;;;;;1.30;0.82;;;12.50;94.70;;;;;;4935016;29;20031;-75
2022/04/25 06:41:54;;;;;;;2.75;0.80;;;12.60;94.40;;;;;;4934892;29;20043;-75
2022/04/25 06:44:19;;;;;;;4.18;0.82;;;12.60;93.90;;;;;;4934924;29;20464;-75
2022/04/25 06:46:45;;;;;;;4.80;0.77;;;12.70;93.60;;;;;;4934651;29;20027;-75
2022/04/25 06:49:19;;;;;;;2.92;1.10;;;12.90;93.40;;;;;;4934809;29;20032;-75
2022/04/25 06:51:45;;;;;;;4.70;1.25;;;12.90;93.10;;;;;;4934768;29;20670;-74
2022/04/25 06:54:13;;;;;;;3.50;1.20;;;13.00;93.10;;;;;;4934846;29;20055;-75
2022/04/25 06:56:39;;;;;;;4.25;1.27;;;13.20;93.80;;;;;;4934716;29;20027;-74
2022/04/25 06:59:05;;;;;;;4.57;1.00;;;13.40;93.00;;;;;;4934714;29;20031;-74
2022/04/25 07:01:31;;;;;;;1.77;1.10;;;13.50;93.00;;;;;;4934770;29;20035;-74
2022/04/25 07:03:56;;;;;;;2.15;1.02;;;13.70;92.90;;;;;;4934570;29;20082;-74
2022/04/25 07:06:22;;;;;;;3.05;1.00;;;13.90;92.00;;;;;;4917644;29;20058;-75
2022/04/25 07:08:48;;;;;;;0.80;0.65;;;14.10;91.60;;;;;;4934723;29;20083;-75
2022/04/25 07:11:13;;;;;;;1.90;0.80;;;14.40;91.30;;;;;;4917502;29;20046;-75
2022/04/25 07:13:42;;;;;;;0.73;0.73;;;14.60;90.20;;;;;;4934672;29;20031;-74
2022/04/25 07:16:12;;;;;;;2.40;0.88;;;14.80;89.50;;;;;;4934561;29;20023;-75
2022/04/25 07:18:38;;;;;;;0.80;0.80;;;15.00;88.70;;;;;;4917457;29;20038;-74
2022/04/25 07:29:17;;;;;;;1.27;0.70;;;15.70;84.10;;;;;;4936610;29;20043;-75
2022/04/25 07:31:43;;;;;;;0.88;0.60;;;15.60;83.40;;;;;;4938179;29;20020;-75
2022/04/25 07:34:09;;;;;;;1.70;1.15;;;15.60;82.20;;;;;;4938176;29;20079;-75
2022/04/25 07:36:36;;;;;;;1.52;0.90;;;15.50;85.10;;;;;;4938041;29;20638;-75
2022/04/25 07:39:03;;;;;;;1.45;0.70;;;15.60;85.00;;;;;;4938182;29;20051;-74
2022/04/25 07:41:29;;;;;;;1.20;1.00;;;15.80;81.70;;;;;;4938084;29;20024;-75
2022/04/25 07:43:55;;;;;;;2.67;0.70;;;16.00;82.80;;;;;;4937895;29;20543;-74
2022/04/25 07:46:25;;;;;;;2.15;0.80;;;16.10;81.00;;;;;;4920776;29;20023;-74
2022/04/25 07:48:51;;;;;;;0.95;0.50;;;16.30;79.50;;;;;;4937899;29;20023;-75
2022/04/25 07:51:17;;;;;;;0.47;0.47;;;16.30;78.50;;;;;;4937820;29;20047;-75
2022/04/25 07:53:42;;;;;;;0.73;0.50;;;16.20;77.30;;;;;;4937669;29;20400;-74
2022/04/25 07:56:08;;;;;;;1.00;0.63;;;16.20;79.30;;;;;;4937682;29;20036;-74
2022/04/25 07:58:34;;;;;;;0.60;0.50;;;16.30;80.10;;;;;;4937704;29;20035;-75
2022/04/25 08:01:01;;;;;;;3.58;0.65;;;16.40;78.10;;;;;;4937594;29;20019;-75
2022/04/25 08:03:27;;;;;;;2.28;0.43;;;16.70;78.90;;;;;;4937638;29;20040;-75
2022/04/25 08:05:53;;;;;;;2.88;0.45;;;16.70;78.50;;;;;;4937359;29;20460;-75
2022/04/25 08:08:19;;;;;;;0.75;0.40;;;16.80;76.40;;;;;;4920311;29;20056;-74
2022/04/25 08:10:44;;;;;;;0.90;0.60;;;16.80;75.30;;;;;;4937485;29;20379;-74
2022/04/25 08:18:38;;;;;;;1.38;0.68;;;16.90;74.70;;;;;;4936517;29;20039;-77
2022/04/25 08:21:04;;;;;;;1.63;1.00;;;16.90;75.70;;;;;;4920111;29;20028;-76
2022/04/25 08:23:30;;;;;;;0.98;0.73;;;17.00;73.50;;;;;;4936288;29;20035;-76
2022/04/25 08:25:56;;;;;;;0.60;0.60;;;17.00;74.90;;;;;;4936559;29;20024;-77
2022/04/25 08:28:22;;;;;;;1.10;0.75;;;17.20;76.20;;;;;;4936832;29;20027;-77
2022/04/25 08:30:48;;;;;;;0.40;0.35;;;17.40;73.90;;;;;;4937035;29;20031;-77
2022/04/25 08:33:13;;;;;;;1.05;0.50;;;17.60;73.20;;;;;;4936866;29;20035;-77
2022/04/25 08:35:40;;;;;;;0.80;0.68;;;17.80;71.30;;;;;;4936609;29;20475;-77
2022/04/25 08:38:06;;;;;;;1.48;0.85;;;18.00;68.80;;;;;;4936761;29;20036;-76
2022/04/25 08:40:32;;;;;;;0.32;0.22;;;18.30;69.10;;;;;;4936853;29;20424;-77
2022/04/25 08:42:59;;;;;;;0.40;0.30;;;18.50;67.20;;;;;;4936955;29;20059;-77
2022/04/25 08:45:27;;;;;;;0.75;0.30;;;18.60;65.40;;;;;;4936773;29;20040;-77
2022/04/25 08:47:55;;;;;;;0.22;0.22;;;18.70;64.90;;;;;;4936716;29;20047;-77
2022/04/25 08:50:22;;;;;;;0.75;0.30;;;18.80;63.00;;;;;;4937041;29;20023;-77
2022/04/25 08:52:48;;;;;;;0.20;0.20;;;18.80;64.60;;;;;;4936487;29;20527;-78
2022/04/25 08:55:16;;;;;;;0.20;0.20;;;18.80;62.80;;;;;;4936873;29;20506;-80
2022/04/25 08:57:43;;;;;;;0.70;0.32;;;18.70;61.70;;;;;;4936788;29;20041;-79
2022/04/25 09:00:10;;;;;;;1.33;0.45;;;18.70;63.90;;;;;;4919661;29;20031;-77
2022/04/25 09:02:38;;;;;;;14.27;0.57;;;18.70;64.40;;;;;;4919725;29;20032;-79
2022/04/25 09:05:05;;;;;;;0.32;0.30;;;18.90;63.90;;;;;;4919849;29;20048;-89
2022/04/25 09:07:31;;;;;;;2.00;0.40;;;18.70;62.50;;;;;;4919891;29;20052;-82
2022/04/25 09:09:57;;;;;;;2.55;0.50;;;18.40;62.90;;;;;;4936811;29;20054;-75
2022/04/25 09:12:22;;;;;;;0.68;0.45;;;18.50;64.80;;;;;;4936524;29;20060;-75
2022/04/25 09:14:49;;;;;;;0.52;0.52;;;18.60;65.10;;;;;;4936458;29;20463;-78
2022/04/25 09:17:15;;;;;;;1.13;0.50;;;18.70;64.80;;;;;;4936501;29;20110;-78
2022/04/25 09:19:40;;;;;;;0.20;0.20;;;18.70;64.60;;;;;;4919375;29;20131;-78
2022/04/25 09:22:08;;;;;;;1.65;0.52;;;18.70;62.90;;;;;;4936433;29;20024;-85
2022/04/25 09:24:47;;;;;;;0.32;0.30;;;18.40;63.40;;;;;;4936680;29;20060;-79
2022/04/25 09:27:23;;;;;;;0.52;0.52;;;18.30;65.30;;;;;;4936425;29;20105;-79
2022/04/25 09:29:49;;;;;;;1.13;0.60;;;18.30;62.60;;;;;;4936150;29;20369;-78
2022/04/25 09:32:18;;;;;;;0.45;0.45;;;18.50;63.80;;;;;;4919394;29;20171;-79
2022/04/25 09:37:43;;;;;;;0.55;0.30;;;18.50;65.00;;;;;;4936523;29;20379;-78
2022/04/25 09:40:09;;;;;;;0.30;0.30;;;18.70;64.40;;;;;;4936156;29;20027;-81
2022/04/25 09:42:36;;;;;;;0.30;0.20;;;19.00;62.10;;;;;;4918859;29;20024;-78
2022/04/25 09:45:03;;;;;;;0.30;0.20;;;18.80;61.30;;;;;;4935871;29;20032;-79
2022/04/25 09:47:31;;;;;;;0.25;0.25;;;18.90;62.10;;;;;;4935785;29;20032;-77
2022/04/25 09:50:08;;;;;;;2.97;0.65;;;19.00;63.90;;;;;;4935853;29;20024;-79
2022/04/25 09:52:49;;;;;;;2.80;0.22;;;19.30;62.90;;;;;;4935292;29;20396;-77
2022/04/25 09:55:16;;;;;;;2.25;0.38;;;19.50;64.20;;;;;;4936071;29;20034;-77
2022/04/25 09:57:45;;;;;;;0.40;0.25;;;19.70;61.70;;;;;;4935613;29;20027;-78
2022/04/25 10:00:11;;;;;;;0.30;0.30;;;19.80;61.00;;;;;;4935519;29;20108;-77
2022/04/25 10:02:41;;;;;;;0.63;0.30;;;19.60;60.90;;;;;;4935774;29;20020;-77
2022/04/25 10:05:12;;;;;;;0.50;0.35;;;19.60;61.90;;;;;;4935504;29;20035;-77
2022/04/25 10:07:38;;;;;;;0.25;0.25;;;19.50;59.80;;;;;;4935285;29;20056;-78
2022/04/25 10:10:05;;;;;;;0.55;0.30;;;19.40;58.60;;;;;;4918274;29;20024;-80
2022/04/25 10:12:34;;;;;;;0.40;0.40;;;19.30;60.50;;;;;;4917967;29;20035;-79
2022/04/25 10:15:00;;;;;;;0.10;0.10;;;19.20;58.70;;;;;;4918190;29;20055;-79
2022/04/25 10:17:27;;;;;;;1.08;0.20;;;19.20;59.60;;;;;;4917832;29;20023;-79
2022/04/25 10:19:55;;;;;;;1.02;0.20;;;18.90;58.60;;;;;;4935109;29;20092;-80
2022/04/25 10:22:21;;;;;;;1.40;0.10;;;19.00;58.70;;;;;;4918041;29;20119;-80
2022/04/25 10:24:46;;;;;;;0.15;0.10;;;19.10;58.10;;;;;;4934938;29;20044;-79
2022/04/25 10:27:14;;;;;;;0.45;0.25;;;19.30;58.90;;;;;;4917883;29;20428;-79
2022/04/25 10:29:45;;;;;;;0.10;0.10;;;19.50;58.70;;;;;;4934868;29;20079;-79
2022/04/25 10:32:12;;;;;;;0.17;0.17;;;19.60;58.70;;;;;;4917821;29;20023;-79
2022/04/25 10:35:11;;;;;;;0.15;0.10;;;19.40;58.10;;;;;;4917867;29;20031;-81
2022/04/25 10:37:39;;;;;;;1.65;0.30;;;19.30;57.60;;;;;;4934882;29;20086;-81
2022/04/25 10:40:13;;;;;;;1.70;0.17;;;19.20;59.30;;;;;;4917265;29;20039;-80
2022/04/25 10:45:55;;;;;;;1.73;0.17;;;19.40;59.90;;;;;;4935318;29;20095;-78
2022/04/25 10:48:21;;;;;;;0.68;0.30;;;19.60;58.80;;;;;;4935603;29;20019;-78
2022/04/25 10:51:18;;;;;;;0.40;0.20;;;19.70;58.40;;;;;;4935229;29;20031;-79
2022/04/25 10:54:03;;;;;;;0.65;0.30;;;20.00;58.80;;;;;;4935200;29;20148;-80
2022/04/25 10:56:30;;;;;;;0.30;0.30;;;20.20;57.30;;;;;;4918256;29;20071;-80
2022/04/25 10:59:24;;;;;;;0.22;0.20;;;20.30;56.70;;;;;;4935006;29;20086;-81
2022/04/25 11:01:51;;;;;;;0.38;0.20;;;20.20;56.50;;;;;;4934907;29;20345;-81
2022/04/25 11:04:18;;;;;;;4.00;0.15;;;20.20;57.20;;;;;;4939201;29;20484;-81
2022/04/25 11:06:44;;;;;;;0.57;0.20;;;20.40;57.30;;;;;;4939019;29;20043;-81
2022/04/25 11:09:10;;;;;;;0.82;0.20;;;20.20;57.50;;;;;;4940181;29;20023;-80
2022/04/25 11:11:52;;;;;;;0.20;0.20;;;20.20;57.70;;;;;;4940782;29;20688;-81
2022/04/25 11:14:18;;;;;;;0.17;0.13;;;20.30;57.60;;;;;;4940621;29;20031;-81
2022/04/25 11:17:08;;;;;;;0.20;0.20;;;20.60;57.20;;;;;;4923573;29;20027;-81
2022/04/25 11:19:51;;;;;;;0.22;0.20;;;20.60;58.50;;;;;;4941258;29;20022;-81
2022/04/25 11:22:36;;;;;;;0.85;0.15;;;20.90;56.60;;;;;;4942035;29;20107;-80
2022/04/25 11:25:30;;;;;;;2.03;0.40;;;21.10;54.60;;;;;;4924616;29;20596;-80
2022/04/25 11:28:12;;;;;;;1.25;0.35;;;21.20;53.10;;;;;;4940015;29;20031;-81
2022/04/25 11:30:39;;;;;;;0.30;0.30;;;21.40;53.60;;;;;;4938557;29;20058;-81
2022/04/25 11:33:08;;;;;;;0.30;0.28;;;21.30;53.10;;;;;;4921361;29;20035;-80
2022/04/25 11:35:34;;;;;;;1.25;0.30;;;21.00;53.40;;;;;;4921247;29;20039;-79
2022/04/25 11:38:00;;;;;;;0.57;0.40;;;20.80;54.90;;;;;;4938538;29;20023;-81
2022/04/25 11:40:29;;;;;;;0.17;0.17;;;20.70;54.10;;;;;;4938823;29;20062;-81
2022/04/25 11:42:56;;;;;;;0.70;0.20;;;20.70;55.10;;;;;;4922085;29;20087;-80
2022/04/25 11:45:22;;;;;;;2.08;0.20;;;20.80;55.50;;;;;;4921538;29;20032;-79
2022/04/25 11:47:48;;;;;;;0.10;0.10;;;20.90;55.10;;;;;;4919612;29;20027;-83
2022/04/25 11:50:17;;;;;;;0.45;0.15;;;20.90;53.60;;;;;;4939410;29;20019;-84
2022/04/25 11:52:45;;;;;;;1.13;0.15;;;20.80;53.20;;;;;;4921922;29;20472;-84
2022/04/25 11:55:11;;;;;;;0.17;0.17;;;20.90;54.30;;;;;;4921451;29;20027;-77
2022/04/25 11:57:41;;;;;;;0.55;0.17;;;20.70;52.80;;;;;;4937659;29;20019;-78
2022/04/25 12:00:13;;;;;;;2.67;0.28;;;20.60;53.10;;;;;;4937903;29;20024;-78
2022/04/25 12:02:39;;;;;;;0.20;0.20;;;20.70;56.10;;;;;;4937703;29;20024;-79
2022/04/25 12:05:07;;;;;;;0.73;0.20;;;20.90;56.10;;;;;;4920790;29;20044;-77
2022/04/25 12:07:36;;;;;;;0.45;0.20;;;21.10;56.60;;;;;;4937607;29;20047;-80
2022/04/25 12:15:42;;;;;;;0.30;0.10;;;21.10;54.80;;;;;;4936972;29;20032;-83
2022/04/25 12:18:21;;;;;;;0.28;0.10;;;21.00;52.60;;;;;;4920292;29;20020;-82
2022/04/25 12:20:49;;;;;;;1.95;0.20;;;21.00;53.90;;;;;;4920810;29;20475;-82
2022/04/25 12:23:23;;;;;;;0.20;0.20;;;21.00;53.70;;;;;;4920442;29;20087;-82
2022/04/25 12:25:51;;;;;;;0.13;0.10;;;21.00;51.90;;;;;;4920878;29;20123;-81
2022/04/25 12:28:22;;;;;;;0.30;0.20;;;21.00;53.00;;;;;;4937042;29;20030;-76
2022/04/25 12:30:53;;;;;;;0.73;0.10;;;20.90;52.10;;;;;;4937220;29;20024;-77
2022/04/25 12:33:25;;;;;;;0.57;0.10;;;20.90;53.30;;;;;;4920075;29;20027;-76
2022/04/25 12:36:09;;;;;;;0.17;0.17;;;21.00;52.20;;;;;;4936720;29;20083;-76
2022/04/25 12:38:40;;;;;;;2.08;0.30;;;21.00;53.10;;;;;;4919774;29;20732;-77
2022/04/25 12:41:07;;;;;;;0.17;0.10;;;21.00;52.10;;;;;;4936980;29;20027;-77
2022/04/25 12:43:34;;;;;;;1.35;0.15;;;21.00;52.30;;;;;;4936749;29;20027;-77
2022/04/25 12:45:59;;;;;;;0.10;0.10;;;21.00;52.90;;;;;;4936946;29;20079;-77
2022/04/25 12:48:25;;;;;;;1.17;0.57;;;21.00;51.90;;;;;;4936398;29;20052;-77
2022/04/25 12:50:51;;;;;;;0.68;0.38;;;21.00;51.60;;;;;;4936762;29;20040;-77
2022/04/25 12:53:36;;;;;;;1.27;0.40;;;21.00;52.70;;;;;;4936719;29;20035;-77
2022/04/25 12:56:02;;;;;;;0.52;0.10;;;21.10;51.50;;;;;;4935816;29;20027;-80
2022/04/25 12:58:33;;;;;;;1.48;0.20;;;21.30;52.50;;;;;;4936429;29;20032;-79
2022/04/25 13:00:58;;;;;;;0.30;0.10;;;21.50;51.90;;;;;;4919265;29;20027;-80
2022/04/25 13:03:26;;;;;;;0.93;0.40;;;21.70;52.70;;;;;;4934637;29;20395;-80
2022/04/25 13:05:53;;;;;;;0.93;0.20;;;21.70;52.30;;;;;;4935169;29;20047;-80
2022/04/25 13:08:19;;;;;;;0.40;0.30;;;21.60;52.60;;;;;;4919015;29;20048;-79
2022/04/25 13:10:45;;;;;;;0.40;0.20;;;21.50;54.00;;;;;;4918723;29;20471;-79
2022/04/25 13:13:11;;;;;;;1.85;0.30;;;21.20;53.10;;;;;;4936088;29;20042;-79
2022/04/25 13:15:38;;;;;;;0.10;0.10;;;21.10;54.40;;;;;;4936129;29;20032;-80
2022/04/25 13:18:04;;;;;;;3.55;0.43;;;21.00;53.80;;;;;;4919158;29;20378;-79
2022/04/25 13:20:31;;;;;;;3.10;0.17;;;20.90;53.50;;;;;;4936142;29;20019;-80
2022/04/25 13:22:59;;;;;;;0.20;0.10;;;20.80;54.10;;;;;;4918932;29;20066;-80
2022/04/25 13:25:25;;;;;;;0.00;0.00;;;20.80;55.10;;;;;;4935831;29;20483;-80
2022/04/25 13:27:52;;;;;;;0.35;0.20;;;20.70;55.30;;;;;;4935854;29;20026;-81
2022/04/25 13:30:19;;;;;;;1.80;0.40;;;20.70;56.90;;;;;;4918934;29;20031;-80